createdAt,value
2023-04-16T00:02:21.739Z,8.57
2023-04-16T00:04:49.203Z,9.47
2023-04-16T00:07:16.527Z,8.27
2023-04-16T00:09:44.084Z,8.83
2023-04-16T00:12:11.362Z,9.23
2023-04-16T00:14:38.711Z,10.63
2023-04-16T00:17:06.107Z,14.77
2023-04-16T00:19:33.405Z,11.00
2023-04-16T00:22:00.883Z,11.77
2023-04-16T00:24:28.144Z,9.27
2023-04-16T00:26:56.284Z,15.63
2023-04-16T00:29:23.863Z,17.90
2023-04-16T00:31:51.855Z,14.57
2023-04-16T00:34:19.289Z,9.87
2023-04-16T00:36:46.659Z,9.30
2023-04-16T00:39:14.112Z,10.00
2023-04-16T00:41:46.684Z,8.43
2023-04-16T00:44:13.929Z,8.37
2023-04-16T00:46:42.358Z,10.40
2023-04-16T00:49:10.833Z,7.33
2023-04-16T00:51:38.496Z,7.87
2023-04-16T00:54:07.277Z,8.17
2023-04-16T00:56:36.954Z,8.13
2023-04-16T00:59:04.814Z,7.27
2023-04-16T01:01:32.148Z,9.53
2023-04-16T01:03:59.776Z,7.57
2023-04-16T01:06:28.220Z,6.90
2023-04-16T01:08:55.729Z,8.47
2023-04-16T01:11:23.006Z,7.63
2023-04-16T01:13:50.512Z,7.33
2023-04-16T01:16:17.810Z,7.70
2023-04-16T01:18:45.206Z,7.03
2023-04-16T01:21:12.516Z,7.37
2023-04-16T01:23:39.810Z,9.70
2023-04-16T01:26:07.310Z,9.97
2023-04-16T01:28:34.576Z,12.60
2023-04-16T01:31:01.907Z,20.23
2023-04-16T01:33:29.533Z,12.60
2023-04-16T01:35:56.955Z,9.43
2023-04-16T01:38:24.278Z,11.77
2023-04-16T01:40:57.897Z,11.60
2023-04-16T01:43:25.298Z,9.13
2023-04-16T01:45:59.880Z,10.03
2023-04-16T01:48:27.097Z,13.90
2023-04-16T01:50:54.388Z,8.43
2023-04-16T01:53:21.660Z,9.07
2023-04-16T01:55:48.984Z,10.03
2023-04-16T01:58:16.270Z,12.33
2023-04-16T02:00:43.931Z,11.57
2023-04-16T02:03:11.454Z,8.73
2023-04-16T02:05:38.782Z,8.50
2023-04-16T02:08:06.528Z,9.90
2023-04-16T02:10:33.756Z,10.40
2023-04-16T02:13:00.977Z,10.97
2023-04-16T02:15:28.375Z,11.30
2023-04-16T02:17:57.297Z,8.90
2023-04-16T02:20:24.745Z,9.23
2023-04-16T02:22:52.171Z,10.13
2023-04-16T02:25:19.471Z,9.13
2023-04-16T02:27:46.744Z,9.43
2023-04-16T02:30:14.238Z,9.03
2023-04-16T02:32:41.803Z,10.43
2023-04-16T02:35:09.209Z,20.40
2023-04-16T02:37:36.492Z,18.67
2023-04-16T02:40:03.776Z,17.90
2023-04-16T02:42:31.089Z,17.50
2023-04-16T02:44:58.340Z,18.40
2023-04-16T02:47:25.614Z,22.67
2023-04-16T02:49:52.943Z,18.37
2023-04-16T02:52:20.400Z,15.33
2023-04-16T02:54:47.855Z,15.80
2023-04-16T02:57:15.137Z,10.10
2023-04-16T02:59:42.356Z,10.07
2023-04-16T03:02:09.654Z,11.07
2023-04-16T03:04:37.131Z,15.70
2023-04-16T03:07:04.446Z,13.03
2023-04-16T03:09:32.221Z,10.83
2023-04-16T03:11:59.418Z,10.67
2023-04-16T03:14:26.622Z,11.33
2023-04-16T03:16:54.145Z,10.97
2023-04-16T03:19:21.434Z,13.97
2023-04-16T03:21:48.762Z,28.27
2023-04-16T03:24:16.186Z,27.57
2023-04-16T03:26:43.561Z,22.43
2023-04-16T03:29:11.123Z,21.67
2023-04-16T03:31:38.760Z,14.83
2023-04-16T03:34:06.422Z,12.07
2023-04-16T03:36:33.721Z,12.17
2023-04-16T03:39:01.331Z,13.63
2023-04-16T03:41:28.649Z,13.63
2023-04-16T03:43:55.898Z,13.37
2023-04-16T03:46:23.308Z,15.90
2023-04-16T03:48:50.756Z,13.80
2023-04-16T03:51:17.981Z,11.97
2023-04-16T03:53:45.217Z,13.73
2023-04-16T03:56:12.653Z,12.70
2023-04-16T03:58:39.891Z,12.90
2023-04-16T04:01:07.275Z,13.00
2023-04-16T04:03:34.818Z,12.77
2023-04-16T04:06:02.202Z,13.27
2023-04-16T04:08:29.954Z,12.47
2023-04-16T04:10:57.267Z,14.43
2023-04-16T04:13:24.538Z,14.67
2023-04-16T04:15:52.081Z,11.67
2023-04-16T04:18:19.486Z,12.63
2023-04-16T04:20:46.800Z,22.80
2023-04-16T04:23:14.067Z,15.83
2023-04-16T04:25:41.333Z,13.40
2023-04-16T04:28:08.769Z,15.23
2023-04-16T04:30:36.718Z,18.23
2023-04-16T04:33:04.188Z,15.47
2023-04-16T04:35:31.527Z,17.37
2023-04-16T04:37:58.811Z,15.40
2023-04-16T04:40:26.337Z,17.47
2023-04-16T04:42:53.605Z,15.03
2023-04-16T04:45:21.868Z,15.33
2023-04-16T04:47:49.701Z,14.77
2023-04-16T04:50:17.175Z,13.90
2023-04-16T04:52:44.485Z,13.57
2023-04-16T04:55:12.542Z,15.40
2023-04-16T04:57:40.147Z,15.23
2023-04-16T05:00:08.381Z,14.27
2023-04-16T05:02:35.738Z,17.23
2023-04-16T05:05:03.865Z,15.33
2023-04-16T05:07:34.308Z,16.37
2023-04-16T05:10:01.926Z,15.00
2023-04-16T05:12:29.203Z,14.87
2023-04-16T05:14:56.651Z,16.80
2023-04-16T05:17:24.168Z,17.77
2023-04-16T05:19:51.713Z,17.40
2023-04-16T05:22:19.255Z,15.50
2023-04-16T05:24:46.554Z,19.17
2023-04-16T05:27:13.874Z,16.70
2023-04-16T05:29:41.167Z,17.70
2023-04-16T05:32:08.523Z,15.13
2023-04-16T05:34:35.966Z,16.93
2023-04-16T05:37:03.274Z,16.97
2023-04-16T05:39:30.899Z,18.00
2023-04-16T05:41:58.319Z,18.80
2023-04-16T05:44:26.138Z,16.77
2023-04-16T05:46:53.585Z,19.37
2023-04-16T05:49:21.703Z,19.83
2023-04-16T05:51:50.895Z,17.70
2023-04-16T05:54:18.514Z,17.40
2023-04-16T05:56:45.895Z,18.37
2023-04-16T05:59:13.832Z,17.47
2023-04-16T06:01:44.367Z,20.33
2023-04-16T06:04:20.989Z,21.50
2023-04-16T06:06:48.380Z,18.57
2023-04-16T06:09:15.752Z,23.30
2023-04-16T06:11:43.362Z,19.23
2023-04-16T06:14:11.158Z,19.53
2023-04-16T06:16:38.548Z,19.70
2023-04-16T06:19:06.057Z,19.43
2023-04-16T06:21:33.766Z,19.97
2023-04-16T06:24:01.947Z,27.87
2023-04-16T06:26:29.292Z,19.23
2023-04-16T06:28:57.548Z,20.20
2023-04-16T06:31:25.158Z,21.30
2023-04-16T06:33:52.530Z,22.13
2023-04-16T06:36:19.885Z,23.87
2023-04-16T06:38:47.302Z,26.30
2023-04-16T06:41:15.340Z,22.77
2023-04-16T06:43:42.869Z,22.67
2023-04-16T06:46:10.148Z,26.20
2023-04-16T06:48:37.487Z,23.93
2023-04-16T06:51:05.022Z,22.13
2023-04-16T06:53:32.394Z,23.93
2023-04-16T06:55:59.658Z,23.10
2023-04-16T06:58:27.724Z,24.57
2023-04-16T07:00:55.444Z,23.27
2023-04-16T07:03:25.866Z,24.60
2023-04-16T07:05:53.177Z,25.00
2023-04-16T07:08:20.538Z,27.13
2023-04-16T07:10:47.990Z,26.50
2023-04-16T07:13:15.371Z,33.63
2023-04-16T07:15:42.741Z,26.37
2023-04-16T07:18:10.132Z,29.30
2023-04-16T07:20:37.611Z,25.90
2023-04-16T07:23:05.000Z,26.37
2023-04-16T07:25:32.431Z,24.20
2023-04-16T07:28:00.230Z,25.47
2023-04-16T07:30:33.077Z,26.73
2023-04-16T07:33:01.867Z,27.77
2023-04-16T07:35:29.428Z,29.80
2023-04-16T07:37:56.738Z,30.07
2023-04-16T07:40:24.824Z,28.67
2023-04-16T07:42:52.441Z,30.23
2023-04-16T07:45:19.827Z,30.93
2023-04-16T07:47:47.459Z,31.33
2023-04-16T07:50:15.132Z,31.07
2023-04-16T07:52:44.054Z,28.90
2023-04-16T07:55:11.411Z,28.60
2023-04-16T07:57:38.663Z,30.63
2023-04-16T08:00:07.420Z,30.53
2023-04-16T08:02:35.043Z,27.83
2023-04-16T08:05:02.648Z,28.37
2023-04-16T08:07:30.313Z,27.47
2023-04-16T08:09:58.095Z,26.83
2023-04-16T08:12:25.387Z,27.17
2023-04-16T08:14:52.783Z,27.93
2023-04-16T08:17:20.221Z,29.60
2023-04-16T08:19:47.654Z,26.17
2023-04-16T08:22:15.166Z,28.63
2023-04-16T08:24:42.513Z,28.97
2023-04-16T08:27:19.244Z,25.30
2023-04-16T08:29:48.429Z,26.60
2023-04-16T08:32:15.950Z,26.03
2023-04-16T08:34:43.623Z,24.00
2023-04-16T08:37:12.456Z,23.80
2023-04-16T08:39:40.093Z,25.30
2023-04-16T08:42:18.221Z,23.07
2023-04-16T08:44:50.246Z,23.10
2023-04-16T08:47:18.158Z,22.77
2023-04-16T08:49:49.048Z,22.63
2023-04-16T08:52:20.509Z,22.10
2023-04-16T08:55:12.861Z,23.87
2023-04-16T08:57:48.928Z,22.37
2023-04-16T09:00:17.097Z,19.43
2023-04-16T09:02:44.761Z,20.80
2023-04-16T09:05:17.523Z,19.77
2023-04-16T09:07:50.020Z,18.03
2023-04-16T09:10:21.692Z,15.67
2023-04-16T09:12:48.934Z,15.87
2023-04-16T09:15:16.302Z,17.00
2023-04-16T09:17:44.013Z,17.53
2023-04-16T09:20:12.807Z,16.00
2023-04-16T09:22:43.152Z,15.43
2023-04-16T09:25:11.406Z,16.37
2023-04-16T09:27:39.071Z,15.23
2023-04-16T09:30:26.550Z,12.03
2023-04-16T09:33:23.063Z,13.20
2023-04-16T09:35:52.483Z,13.00
2023-04-16T09:38:20.973Z,10.93
2023-04-16T09:40:48.565Z,11.83
2023-04-16T09:43:19.407Z,10.93
2023-04-16T09:45:54.034Z,10.30
2023-04-16T09:48:31.471Z,12.37
2023-04-16T09:51:00.337Z,10.43
2023-04-16T09:53:32.158Z,10.73
2023-04-16T09:56:06.997Z,9.67
2023-04-16T09:58:38.418Z,9.05
2023-04-16T10:01:11.481Z,9.50
2023-04-16T10:03:40.492Z,9.50
2023-04-16T10:06:21.498Z,7.93
2023-04-16T10:08:50.384Z,18.00
2023-04-16T10:11:19.301Z,40.17
2023-04-16T10:13:47.031Z,12.35
2023-04-16T10:16:14.731Z,8.20
2023-04-16T10:18:43.890Z,6.82
2023-04-16T10:21:15.685Z,7.68
2023-04-16T10:23:44.836Z,7.45
2023-04-16T10:26:12.305Z,7.75
2023-04-16T10:28:41.135Z,7.40
2023-04-16T10:31:09.840Z,7.53
2023-04-16T10:33:42.380Z,5.75
2023-04-16T10:36:14.484Z,5.70
2023-04-16T10:38:55.274Z,5.40
2023-04-16T10:41:22.907Z,5.32
2023-04-16T10:43:51.545Z,6.60
2023-04-16T10:46:38.960Z,6.53
2023-04-16T10:49:27.443Z,5.90
2023-04-16T10:52:00.310Z,6.00
2023-04-16T10:54:31.920Z,6.03
2023-04-16T10:57:07.873Z,7.50
2023-04-16T10:59:40.032Z,8.77
2023-04-16T11:02:10.146Z,8.60
2023-04-16T11:04:39.622Z,6.00
2023-04-16T11:07:15.945Z,6.73
2023-04-16T11:10:00.569Z,6.50
2023-04-16T11:12:33.127Z,5.23
2023-04-16T11:15:11.180Z,5.20
2023-04-16T11:17:50.854Z,4.50
2023-04-16T11:20:22.506Z,4.93
2023-04-16T11:22:51.812Z,5.63
2023-04-16T11:25:34.431Z,5.20
2023-04-16T11:28:02.851Z,5.73
2023-04-16T11:30:35.305Z,5.63
2023-04-16T11:33:08.045Z,4.43
2023-04-16T11:35:35.721Z,4.00
2023-04-16T11:38:03.005Z,3.90
2023-04-16T11:40:32.442Z,4.37
2023-04-16T11:43:04.511Z,5.03
2023-04-16T11:45:32.199Z,3.83
2023-04-16T11:47:59.596Z,4.35
2023-04-16T11:50:28.530Z,4.80
2023-04-16T11:53:03.611Z,4.07
2023-04-16T11:55:31.524Z,3.60
2023-04-16T11:58:11.375Z,4.05
2023-04-16T12:00:39.442Z,7.17
2023-04-16T12:03:06.859Z,3.53
2023-04-16T12:05:35.467Z,3.67
2023-04-16T12:08:04.672Z,4.05
2023-04-16T12:10:37.562Z,3.40
2023-04-16T12:13:15.957Z,5.13
2023-04-16T12:15:51.434Z,18.00
2023-04-16T12:18:20.867Z,4.85
2023-04-16T12:20:48.506Z,4.95
2023-04-16T12:23:30.614Z,3.35
2023-04-16T12:26:03.011Z,3.35
2023-04-16T12:28:36.377Z,3.70
2023-04-16T12:31:04.618Z,3.07
2023-04-16T12:33:32.377Z,4.43
2023-04-16T12:36:16.958Z,3.60
2023-04-16T12:38:44.250Z,4.30
2023-04-16T12:41:11.697Z,4.38
2023-04-16T12:43:39.011Z,4.53
2023-04-16T12:46:07.069Z,3.65
2023-04-16T12:48:34.868Z,4.10
2023-04-16T12:51:02.608Z,7.60
2023-04-16T12:53:30.075Z,13.63
2023-04-16T12:55:57.374Z,3.47
2023-04-16T12:58:24.724Z,6.77
2023-04-16T13:00:52.341Z,4.30
2023-04-16T13:03:21.286Z,3.70
2023-04-16T13:05:48.857Z,3.70
2023-04-16T13:08:16.776Z,4.97
2023-04-16T13:10:44.284Z,7.30
2023-04-16T13:13:11.649Z,5.73
2023-04-16T13:15:39.103Z,10.70
2023-04-16T13:18:06.694Z,3.77
2023-04-16T13:20:34.245Z,4.53
2023-04-16T13:23:01.517Z,5.13
2023-04-16T13:25:30.077Z,3.60
2023-04-16T13:27:57.624Z,4.20
2023-04-16T13:30:25.807Z,4.03
2023-04-16T13:32:53.274Z,3.83
2023-04-16T13:35:20.704Z,5.60
2023-04-16T13:37:48.648Z,3.73
2023-04-16T13:40:16.052Z,4.27
2023-04-16T13:42:43.754Z,4.40
2023-04-16T13:45:11.702Z,3.70
2023-04-16T13:47:43.869Z,3.60
2023-04-16T13:50:11.822Z,4.73
2023-04-16T13:52:39.037Z,4.07
2023-04-16T13:55:06.926Z,4.90
2023-04-16T13:57:34.261Z,3.63
2023-04-16T14:00:01.823Z,4.10
2023-04-16T14:02:29.270Z,4.90
2023-04-16T14:04:57.269Z,4.37
2023-04-16T14:07:27.343Z,4.33
2023-04-16T14:09:55.113Z,5.73
2023-04-16T14:12:22.511Z,7.77
2023-04-16T14:14:50.038Z,3.70
2023-04-16T14:17:17.359Z,4.33
2023-04-16T14:19:44.663Z,5.20
2023-04-16T14:22:12.062Z,5.30
2023-04-16T14:24:39.381Z,4.80
2023-04-16T14:27:06.664Z,4.10
2023-04-16T14:29:33.981Z,4.60
2023-04-16T14:32:01.752Z,4.53
2023-04-16T14:34:29.161Z,5.90
2023-04-16T14:36:57.072Z,5.47
2023-04-16T14:39:25.308Z,4.43
2023-04-16T14:41:52.664Z,4.67
2023-04-16T14:44:23.816Z,4.30
2023-04-16T14:46:51.253Z,4.87
2023-04-16T14:49:18.641Z,4.77
2023-04-16T14:51:47.100Z,4.63
2023-04-16T14:54:14.458Z,4.80
2023-04-16T14:56:42.283Z,4.90
2023-04-16T14:59:10.545Z,4.23
2023-04-16T15:01:40.066Z,6.70
2023-04-16T15:04:07.834Z,4.40
2023-04-16T15:06:36.164Z,5.20
2023-04-16T15:09:04.328Z,4.70
2023-04-16T15:11:31.987Z,5.17
2023-04-16T15:13:59.416Z,6.97
2023-04-16T15:16:26.866Z,4.00
2023-04-16T15:18:54.514Z,4.10
2023-04-16T15:21:22.242Z,5.93
2023-04-16T15:23:49.705Z,4.10
2023-04-16T15:26:17.142Z,8.17
2023-04-16T15:28:44.986Z,5.70
2023-04-16T15:31:13.247Z,4.93
2023-04-16T15:33:40.828Z,5.85
2023-04-16T15:36:08.181Z,6.07
2023-04-16T15:38:35.483Z,6.30
2023-04-16T15:41:03.933Z,8.83
2023-04-16T15:43:31.614Z,7.20
2023-04-16T15:45:58.989Z,11.47
2023-04-16T15:48:26.369Z,7.97
2023-04-16T15:50:54.613Z,9.50
2023-04-16T15:53:22.001Z,12.20
2023-04-16T15:55:53.944Z,7.83
2023-04-16T15:58:21.977Z,8.20
2023-04-16T16:00:51.126Z,9.07
2023-04-16T16:03:19.147Z,10.73
2023-04-16T16:05:48.770Z,7.03
2023-04-16T16:08:17.059Z,6.47
2023-04-16T16:10:44.449Z,7.37
2023-04-16T16:13:14.327Z,11.33
2023-04-16T16:15:42.548Z,16.63
2023-04-16T16:18:10.303Z,22.53
2023-04-16T16:20:37.762Z,21.53
2023-04-16T16:23:05.293Z,31.03
2023-04-16T16:25:32.591Z,36.37
2023-04-16T16:28:01.882Z,15.43
2023-04-16T16:30:30.336Z,37.10
2023-04-16T16:32:58.095Z,24.47
2023-04-16T16:35:26.577Z,24.87
2023-04-16T16:37:57.517Z,51.70
2023-04-16T16:40:24.878Z,46.83
2023-04-16T16:42:52.386Z,32.00
2023-04-16T16:45:19.963Z,26.83
2023-04-16T16:47:47.864Z,18.37
2023-04-16T16:50:16.467Z,14.67
2023-04-16T16:52:45.243Z,13.70
2023-04-16T16:55:12.784Z,15.97
2023-04-16T16:57:40.349Z,13.07
2023-04-16T17:00:12.025Z,10.27
2023-04-16T17:02:39.777Z,12.30
2023-04-16T17:05:08.067Z,20.10
2023-04-16T17:07:35.595Z,16.30
2023-04-16T17:10:06.039Z,27.53
2023-04-16T17:12:33.995Z,25.37
2023-04-16T17:15:01.311Z,19.73
2023-04-16T17:17:29.452Z,13.07
2023-04-16T17:19:56.771Z,9.40
2023-04-16T17:22:24.109Z,11.70
2023-04-16T17:24:51.387Z,10.40
2023-04-16T17:27:18.820Z,11.40
2023-04-16T17:29:46.178Z,12.33
2023-04-16T17:32:13.537Z,15.67
2023-04-16T17:34:40.973Z,14.17
2023-04-16T17:37:08.208Z,17.63
2023-04-16T17:39:35.427Z,15.20
2023-04-16T17:42:04.316Z,12.93
2023-04-16T17:44:31.874Z,14.47
2023-04-16T17:46:59.243Z,14.70
2023-04-16T17:49:26.977Z,13.50
2023-04-16T17:51:54.699Z,11.80
2023-04-16T17:54:21.949Z,17.77
2023-04-16T17:56:49.305Z,28.93
2023-04-16T17:59:16.762Z,18.13
2023-04-16T18:01:45.168Z,18.37
2023-04-16T18:04:13.519Z,5.33
2023-04-16T18:06:41.205Z,5.73
2023-04-16T18:09:08.850Z,6.03
2023-04-16T18:11:36.255Z,7.07
2023-04-16T18:14:03.987Z,18.07
2023-04-16T18:16:31.525Z,94.10
2023-04-16T18:18:59.430Z,65.53
2023-04-16T18:21:27.793Z,175.80
2023-04-16T18:23:55.460Z,149.70
2023-04-16T18:26:23.194Z,102.03
2023-04-16T18:28:50.630Z,119.60
2023-04-16T18:31:20.834Z,108.93
2023-04-16T18:33:57.585Z,118.70
2023-04-16T18:36:27.068Z,130.03
2023-04-16T18:39:02.138Z,217.50
2023-04-16T18:41:31.547Z,176.23
2023-04-16T18:43:59.087Z,118.20
2023-04-16T18:46:27.728Z,120.17
2023-04-16T18:48:55.672Z,103.97
2023-04-16T18:51:23.005Z,94.77
2023-04-16T18:53:50.902Z,98.93
2023-04-16T18:56:18.708Z,86.80
2023-04-16T18:58:46.055Z,59.37
2023-04-16T19:01:14.215Z,46.23
2023-04-16T19:03:41.613Z,24.70
2023-04-16T19:06:09.290Z,27.20
2023-04-16T19:08:36.948Z,25.00
2023-04-16T19:11:04.283Z,35.83
2023-04-16T19:13:32.656Z,49.13
2023-04-16T19:16:02.042Z,41.07
2023-04-16T19:18:29.423Z,46.40
2023-04-16T19:21:01.072Z,45.10
2023-04-16T19:23:29.169Z,30.30
2023-04-16T19:25:58.318Z,28.83
2023-04-16T19:28:27.228Z,14.83
2023-04-16T19:30:56.877Z,9.17
2023-04-16T19:33:24.353Z,8.60
2023-04-16T19:35:52.302Z,6.13
2023-04-16T19:38:20.190Z,11.50
2023-04-16T19:40:49.309Z,8.47
2023-04-16T19:43:17.018Z,8.57
2023-04-16T19:45:48.626Z,9.77
2023-04-16T19:48:16.039Z,12.80
2023-04-16T19:50:44.155Z,11.30
2023-04-16T19:53:12.309Z,13.40
2023-04-16T19:55:40.301Z,10.90
2023-04-16T19:58:08.283Z,8.20
2023-04-16T20:00:38.317Z,7.13
2023-04-16T20:03:06.532Z,8.17
2023-04-16T20:05:33.904Z,8.40
2023-04-16T20:08:01.348Z,6.70
2023-04-16T20:10:29.632Z,6.27
2023-04-16T20:12:56.973Z,5.50
2023-04-16T20:15:24.443Z,6.60
2023-04-16T20:17:52.578Z,5.40
2023-04-16T20:20:20.196Z,6.33
2023-04-16T20:22:47.538Z,6.80
2023-04-16T20:25:19.191Z,9.70
2023-04-16T20:27:46.751Z,7.10
2023-04-16T20:30:14.470Z,7.27
2023-04-16T20:32:41.724Z,6.23
2023-04-16T20:35:11.673Z,7.23
2023-04-16T20:37:39.497Z,6.60
2023-04-16T20:40:08.975Z,6.83
2023-04-16T20:42:36.495Z,6.23
2023-04-16T20:45:04.126Z,6.43
2023-04-16T20:47:31.329Z,7.57
2023-04-16T20:50:01.974Z,6.73
2023-04-16T20:52:29.345Z,8.10
2023-04-16T20:54:56.797Z,8.63
2023-04-16T20:57:24.095Z,7.87
2023-04-16T20:59:51.822Z,9.30
2023-04-16T21:02:20.463Z,8.27
2023-04-16T21:04:47.944Z,9.40
2023-04-16T21:07:15.820Z,6.90
2023-04-16T21:09:43.630Z,8.47
2023-04-16T21:12:11.183Z,7.93
2023-04-16T21:14:38.476Z,12.13
2023-04-16T21:17:05.862Z,8.63
2023-04-16T21:19:33.336Z,6.63
2023-04-16T21:22:02.753Z,7.37
2023-04-16T21:24:31.864Z,8.33
2023-04-16T21:26:59.106Z,7.70
2023-04-16T21:29:26.437Z,6.87
2023-04-16T21:31:54.392Z,8.53
2023-04-16T21:34:21.661Z,8.30
2023-04-16T21:36:48.894Z,9.57
2023-04-16T21:39:17.831Z,10.27
2023-04-16T21:41:45.033Z,9.40
2023-04-16T21:44:12.316Z,8.70
2023-04-16T21:46:39.612Z,8.93
2023-04-16T21:49:07.071Z,8.20
2023-04-16T21:51:34.308Z,9.03
2023-04-16T21:54:01.637Z,9.37
2023-04-16T21:56:28.867Z,15.03
2023-04-16T21:58:56.338Z,12.37
2023-04-16T22:01:24.387Z,12.73
2023-04-16T22:03:52.430Z,12.07
2023-04-16T22:06:20.724Z,13.00
2023-04-16T22:08:50.329Z,18.67
2023-04-16T22:11:21.008Z,18.77
2023-04-16T22:13:48.547Z,20.17
2023-04-16T22:16:16.000Z,21.77
2023-04-16T22:18:43.529Z,18.93
2023-04-16T22:21:11.680Z,17.87
2023-04-16T22:23:39.054Z,21.30
2023-04-16T22:26:06.510Z,23.97
2023-04-16T22:28:33.813Z,16.23
2023-04-16T22:31:01.154Z,15.40
2023-04-16T22:33:31.848Z,15.93
2023-04-16T22:36:00.995Z,16.73
2023-04-16T22:38:28.290Z,21.23
2023-04-16T22:40:56.320Z,24.30
2023-04-16T22:43:23.736Z,20.17
2023-04-16T22:46:00.651Z,22.20
2023-04-16T22:48:28.338Z,20.33
2023-04-16T22:50:55.654Z,21.23
2023-04-16T22:53:23.216Z,19.53
2023-04-16T22:55:50.486Z,18.90
2023-04-16T22:58:17.869Z,16.97
2023-04-16T23:00:45.566Z,12.73
2023-04-16T23:03:12.810Z,12.43
2023-04-16T23:05:40.486Z,12.17
2023-04-16T23:08:07.853Z,12.03
2023-04-16T23:10:35.268Z,11.67
2023-04-16T23:13:02.771Z,12.20
2023-04-16T23:15:30.182Z,13.30
2023-04-16T23:17:57.517Z,18.00
2023-04-16T23:20:25.187Z,18.43
2023-04-16T23:22:53.396Z,25.40
2023-04-16T23:25:22.671Z,21.70
2023-04-16T23:27:50.020Z,19.33
2023-04-16T23:30:17.421Z,29.73
2023-04-16T23:32:44.796Z,25.13
2023-04-16T23:35:12.185Z,22.40
2023-04-16T23:37:39.516Z,17.30
2023-04-16T23:40:08.530Z,18.77
2023-04-16T23:42:35.822Z,20.67
2023-04-16T23:45:03.143Z,18.67
2023-04-16T23:47:30.457Z,72.30
2023-04-16T23:49:58.053Z,80.97
2023-04-16T23:52:25.487Z,78.90
2023-04-16T23:54:53.172Z,61.50
2023-04-16T23:57:20.542Z,47.97
2023-04-16T23:59:47.836Z,46.27
